Estación Meteorológica Peña el Pijo (Robertgarden) [ 11/20/17 01:25:23 CET ]

Fecha Hora Presion(HPa) Temp (°C) Humedad % Rocio (°C) Viento ( m/s) Direccion Lluvia 1Hora(mm) Lluvia 24H(mm) LLuvia Total(mm)
2017-Nov-06 01:01:49 1013.800 2.4 81 -0.5         1468.01
2017-Nov-06 02:04:29 1013.500 1.6 82 -1.2         1468.01
2017-Nov-06 03:01:43 1013.300 1.5 83 -1.1         1468.01
2017-Nov-06 04:10:06 1012.800 1.1 83 -1.5         1468.01
2017-Nov-06 05:01:48 1012.400 1.3 83 -1.3         1468.01
2017-Nov-06 06:01:56 1012.800 0.8 84 -1.6         1468.01
2017-Nov-06 07:02:04 1012.400 0.8 84 -1.6         1468.01
2017-Nov-06 08:01:43 1012.400 -0.1 84 -2.5         1468.01
2017-Nov-06 09:01:52 1012.800 3.1 87 1.1         1468.01
2017-Nov-06 10:01:44 1012.900 10.4 74 6.0         1468.01
2017-Nov-06 11:01:45 1012.400 13.3 48 2.5         1468.01
2017-Nov-06 12:01:52 1012.100 13.8 45 2.0         1468.01
2017-Nov-06 13:01:51 1011.300 13.4 42 0.7         1468.01
2017-Nov-06 14:01:55 1010.000 14.9 39 1.0         1468.01
2017-Nov-06 15:01:41 1009.500 16.6 35 0.9         1468.01
2017-Nov-06 16:01:54 1009.000 15.9 33 -0.5         1468.01
2017-Nov-06 17:01:55 1008.900 13.9 37 -0.7         1468.01
2017-Nov-06 18:01:43 1009.200 9.9 44 -1.9         1468.01
2017-Nov-06 19:01:52 1009.500 7.1 52 -2.1         1468.01
2017-Nov-06 20:01:47 1009.500 4.6 60 -2.5         1468.01
2017-Nov-06 21:01:40 1009.500 2.8 67 -2.7         1468.01
2017-Nov-06 22:01:59 1010.000 2.1 71 -2.6         1468.01
2017-Nov-06 23:01:47 1010.000 2.3 73 -2.1         1468.01

Temperatura Máxima:16°    Temperatura Mínima:
Presión Máxima:1013.800 Hpa    Presión Mínima:1008.900 Hpa


Volver